sensor_id;sensor_type;location;lat;lon;timestamp;temperature;humidity
17346;DHT22;8790;53.590;10.002;2023-07-29T00:00:17;18.70;99.90
17346;DHT22;8790;53.590;10.002;2023-07-29T00:02:50;18.70;99.90
17346;DHT22;8790;53.590;10.002;2023-07-29T00:05:21;18.60;99.90
17346;DHT22;8790;53.590;10.002;2023-07-29T00:07:54;18.60;99.90
17346;DHT22;8790;53.590;10.002;2023-07-29T00:10:27;18.60;99.90
17346;DHT22;8790;53.590;10.002;2023-07-29T00:12:58;18.60;99.90
17346;DHT22;8790;53.590;10.002;2023-07-29T00:15:30;18.50;99.90
17346;DHT22;8790;53.590;10.002;2023-07-29T00:18:02;18.50;99.90
17346;DHT22;8790;53.590;10.002;2023-07-29T00:20:33;18.50;99.90
17346;DHT22;8790;53.590;10.002;2023-07-29T00:23:06;18.50;99.90
17346;DHT22;8790;53.590;10.002;2023-07-29T00:25:38;18.50;99.90
17346;DHT22;8790;53.590;10.002;2023-07-29T00:28:12;18.50;99.90
17346;DHT22;8790;53.590;10.002;2023-07-29T00:30:43;18.40;99.90
17346;DHT22;8790;53.590;10.002;2023-07-29T00:33:15;18.40;99.90
17346;DHT22;8790;53.590;10.002;2023-07-29T00:35:47;18.40;99.90
17346;DHT22;8790;53.590;10.002;2023-07-29T00:38:20;18.30;99.90
17346;DHT22;8790;53.590;10.002;2023-07-29T00:40:52;18.30;99.90
17346;DHT22;8790;53.590;10.002;2023-07-29T00:43:24;18.30;99.90
17346;DHT22;8790;53.590;10.002;2023-07-29T00:45:56;18.30;99.90
17346;DHT22;8790;53.590;10.002;2023-07-29T00:48:28;18.30;99.90
17346;DHT22;8790;53.590;10.002;2023-07-29T00:51:00;18.20;99.90
17346;DHT22;8790;53.590;10.002;2023-07-29T00:53:33;18.20;99.90
17346;DHT22;8790;53.590;10.002;2023-07-29T00:56:05;18.20;99.90
17346;DHT22;8790;53.590;10.002;2023-07-29T00:58:37;18.20;99.90
17346;DHT22;8790;53.590;10.002;2023-07-29T01:01:09;18.20;99.90
17346;DHT22;8790;53.590;10.002;2023-07-29T01:03:41;18.20;99.90
17346;DHT22;8790;53.590;10.002;2023-07-29T01:06:21;18.20;99.90
17346;DHT22;8790;53.590;10.002;2023-07-29T01:09:01;18.20;99.90
17346;DHT22;8790;53.590;10.002;2023-07-29T01:11:51;18.30;99.90
17346;DHT22;8790;53.590;10.002;2023-07-29T01:14:36;18.20;99.90
17346;DHT22;8790;53.590;10.002;2023-07-29T01:17:13;18.30;99.90
17346;DHT22;8790;53.590;10.002;2023-07-29T01:19:57;18.30;99.90
17346;DHT22;8790;53.590;10.002;2023-07-29T01:22:32;18.30;99.90
17346;DHT22;8790;53.590;10.002;2023-07-29T01:25:06;18.30;99.90
17346;DHT22;8790;53.590;10.002;2023-07-29T01:27:38;18.30;99.90
17346;DHT22;8790;53.590;10.002;2023-07-29T01:30:10;18.30;99.90
17346;DHT22;8790;53.590;10.002;2023-07-29T01:32:45;18.30;99.90
17346;DHT22;8790;53.590;10.002;2023-07-29T01:35:23;18.30;99.90
17346;DHT22;8790;53.590;10.002;2023-07-29T01:37:58;18.40;99.90
17346;DHT22;8790;53.590;10.002;2023-07-29T01:40:33;18.40;99.90
17346;DHT22;8790;53.590;10.002;2023-07-29T01:43:06;18.40;99.90
17346;DHT22;8790;53.590;10.002;2023-07-29T01:45:38;18.40;99.90
17346;DHT22;8790;53.590;10.002;2023-07-29T01:48:10;18.50;99.90
17346;DHT22;8790;53.590;10.002;2023-07-29T01:50:42;18.50;99.90
17346;DHT22;8790;53.590;10.002;2023-07-29T01:53:14;18.50;99.90
17346;DHT22;8790;53.590;10.002;2023-07-29T01:55:47;18.50;99.90
17346;DHT22;8790;53.590;10.002;2023-07-29T01:58:19;18.50;99.90
17346;DHT22;8790;53.590;10.002;2023-07-29T02:00:52;18.40;99.90
17346;DHT22;8790;53.590;10.002;2023-07-29T02:03:24;18.40;99.90
17346;DHT22;8790;53.590;10.002;2023-07-29T02:05:56;18.40;99.90
17346;DHT22;8790;53.590;10.002;2023-07-29T02:08:27;18.40;99.90
17346;DHT22;8790;53.590;10.002;2023-07-29T02:11:01;18.40;99.90
17346;DHT22;8790;53.590;10.002;2023-07-29T02:13:32;18.50;99.90
17346;DHT22;8790;53.590;10.002;2023-07-29T02:16:04;18.40;99.90
17346;DHT22;8790;53.590;10.002;2023-07-29T02:18:36;18.50;99.90
17346;DHT22;8790;53.590;10.002;2023-07-29T02:21:08;18.50;99.90
17346;DHT22;8790;53.590;10.002;2023-07-29T02:23:39;18.60;99.90
17346;DHT22;8790;53.590;10.002;2023-07-29T02:26:12;18.60;99.90
17346;DHT22;8790;53.590;10.002;2023-07-29T02:28:44;18.60;99.90
17346;DHT22;8790;53.590;10.002;2023-07-29T02:31:17;18.60;99.90
17346;DHT22;8790;53.590;10.002;2023-07-29T02:33:50;18.60;99.90
17346;DHT22;8790;53.590;10.002;2023-07-29T02:36:23;18.70;99.90
17346;DHT22;8790;53.590;10.002;2023-07-29T02:38:54;18.70;99.90
17346;DHT22;8790;53.590;10.002;2023-07-29T02:41:28;18.60;99.90
17346;DHT22;8790;53.590;10.002;2023-07-29T02:44:01;18.70;99.90
17346;DHT22;8790;53.590;10.002;2023-07-29T02:46:33;18.60;99.90
17346;DHT22;8790;53.590;10.002;2023-07-29T02:49:05;18.70;99.90
17346;DHT22;8790;53.590;10.002;2023-07-29T02:51:37;18.70;99.90
17346;DHT22;8790;53.590;10.002;2023-07-29T02:54:09;18.70;99.90
17346;DHT22;8790;53.590;10.002;2023-07-29T02:56:42;18.70;99.90
17346;DHT22;8790;53.590;10.002;2023-07-29T02:59:14;18.70;99.90
17346;DHT22;8790;53.590;10.002;2023-07-29T03:01:45;18.70;99.90
17346;DHT22;8790;53.590;10.002;2023-07-29T03:04:17;18.60;99.90
17346;DHT22;8790;53.590;10.002;2023-07-29T03:06:49;18.70;99.90
17346;DHT22;8790;53.590;10.002;2023-07-29T03:09:21;18.70;99.90
17346;DHT22;8790;53.590;10.002;2023-07-29T03:11:54;18.70;99.90
17346;DHT22;8790;53.590;10.002;2023-07-29T03:14:25;18.70;99.90
17346;DHT22;8790;53.590;10.002;2023-07-29T03:16:58;18.70;99.90
17346;DHT22;8790;53.590;10.002;2023-07-29T03:19:33;18.70;99.90
17346;DHT22;8790;53.590;10.002;2023-07-29T03:22:05;18.60;99.90
17346;DHT22;8790;53.590;10.002;2023-07-29T03:24:37;18.70;99.90
17346;DHT22;8790;53.590;10.002;2023-07-29T03:27:10;18.60;99.90
17346;DHT22;8790;53.590;10.002;2023-07-29T03:29:42;18.60;99.90
17346;DHT22;8790;53.590;10.002;2023-07-29T03:32:14;18.60;99.90
17346;DHT22;8790;53.590;10.002;2023-07-29T03:34:46;18.60;99.90
17346;DHT22;8790;53.590;10.002;2023-07-29T03:37:17;18.60;99.90
17346;DHT22;8790;53.590;10.002;2023-07-29T03:39:49;18.70;99.90
17346;DHT22;8790;53.590;10.002;2023-07-29T03:42:23;18.70;99.90
17346;DHT22;8790;53.590;10.002;2023-07-29T03:44:55;18.60;99.90
17346;DHT22;8790;53.590;10.002;2023-07-29T03:47:27;18.60;99.90
17346;DHT22;8790;53.590;10.002;2023-07-29T03:50:01;18.60;99.90
17346;DHT22;8790;53.590;10.002;2023-07-29T03:52:33;18.60;99.90
17346;DHT22;8790;53.590;10.002;2023-07-29T03:55:06;18.60;99.90
17346;DHT22;8790;53.590;10.002;2023-07-29T03:57:39;18.60;99.90
17346;DHT22;8790;53.590;10.002;2023-07-29T04:00:11;18.60;99.90
17346;DHT22;8790;53.590;10.002;2023-07-29T04:02:46;18.70;99.90
17346;DHT22;8790;53.590;10.002;2023-07-29T04:05:19;18.70;99.90
17346;DHT22;8790;53.590;10.002;2023-07-29T04:07:51;18.60;99.90
17346;DHT22;8790;53.590;10.002;2023-07-29T04:10:24;18.60;99.90
17346;DHT22;8790;53.590;10.002;2023-07-29T04:12:57;18.60;99.90
17346;DHT22;8790;53.590;10.002;2023-07-29T04:15:29;18.60;99.90
17346;DHT22;8790;53.590;10.002;2023-07-29T04:18:01;18.60;99.90
17346;DHT22;8790;53.590;10.002;2023-07-29T04:20:32;18.60;99.90
17346;DHT22;8790;53.590;10.002;2023-07-29T04:23:05;18.60;99.90
17346;DHT22;8790;53.590;10.002;2023-07-29T04:25:37;18.70;99.90
17346;DHT22;8790;53.590;10.002;2023-07-29T04:28:10;18.70;99.90
17346;DHT22;8790;53.590;10.002;2023-07-29T04:30:42;18.70;99.90
17346;DHT22;8790;53.590;10.002;2023-07-29T04:33:13;18.70;99.90
17346;DHT22;8790;53.590;10.002;2023-07-29T04:35:45;18.70;99.90
17346;DHT22;8790;53.590;10.002;2023-07-29T04:38:18;18.70;99.90
17346;DHT22;8790;53.590;10.002;2023-07-29T04:40:50;18.70;99.90
17346;DHT22;8790;53.590;10.002;2023-07-29T04:43:26;18.70;99.90
17346;DHT22;8790;53.590;10.002;2023-07-29T04:45:58;18.60;99.90
17346;DHT22;8790;53.590;10.002;2023-07-29T04:48:31;18.60;99.90
17346;DHT22;8790;53.590;10.002;2023-07-29T04:51:03;18.60;99.90
17346;DHT22;8790;53.590;10.002;2023-07-29T04:53:35;18.70;99.90
17346;DHT22;8790;53.590;10.002;2023-07-29T04:56:08;18.70;99.90
17346;DHT22;8790;53.590;10.002;2023-07-29T04:58:41;18.70;99.90
17346;DHT22;8790;53.590;10.002;2023-07-29T05:01:13;18.70;99.90
17346;DHT22;8790;53.590;10.002;2023-07-29T05:03:44;18.70;99.90
17346;DHT22;8790;53.590;10.002;2023-07-29T05:06:17;18.70;99.90
17346;DHT22;8790;53.590;10.002;2023-07-29T05:08:48;18.60;99.90
17346;DHT22;8790;53.590;10.002;2023-07-29T05:11:20;18.70;99.90
17346;DHT22;8790;53.590;10.002;2023-07-29T05:13:53;18.70;99.90
17346;DHT22;8790;53.590;10.002;2023-07-29T05:16:25;18.70;99.90
17346;DHT22;8790;53.590;10.002;2023-07-29T05:18:57;18.70;99.90
17346;DHT22;8790;53.590;10.002;2023-07-29T05:21:29;18.70;99.90
17346;DHT22;8790;53.590;10.002;2023-07-29T05:24:01;18.60;99.90
17346;DHT22;8790;53.590;10.002;2023-07-29T05:26:33;18.70;99.90
17346;DHT22;8790;53.590;10.002;2023-07-29T05:29:06;18.70;99.90
17346;DHT22;8790;53.590;10.002;2023-07-29T05:31:38;18.70;99.90
17346;DHT22;8790;53.590;10.002;2023-07-29T05:34:10;18.70;99.90
17346;DHT22;8790;53.590;10.002;2023-07-29T05:36:42;18.70;99.90
17346;DHT22;8790;53.590;10.002;2023-07-29T05:39:13;18.70;99.90
17346;DHT22;8790;53.590;10.002;2023-07-29T05:41:45;18.70;99.90
17346;DHT22;8790;53.590;10.002;2023-07-29T05:44:19;18.70;99.90
17346;DHT22;8790;53.590;10.002;2023-07-29T05:46:51;18.80;99.90
17346;DHT22;8790;53.590;10.002;2023-07-29T05:49:23;18.80;99.90
17346;DHT22;8790;53.590;10.002;2023-07-29T05:51:54;18.80;99.90
17346;DHT22;8790;53.590;10.002;2023-07-29T05:54:26;18.80;99.90
17346;DHT22;8790;53.590;10.002;2023-07-29T05:56:58;18.80;99.90
17346;DHT22;8790;53.590;10.002;2023-07-29T05:59:31;18.80;99.90
17346;DHT22;8790;53.590;10.002;2023-07-29T06:02:03;18.90;99.90
17346;DHT22;8790;53.590;10.002;2023-07-29T06:04:35;18.90;99.90
17346;DHT22;8790;53.590;10.002;2023-07-29T06:07:06;18.90;99.90
17346;DHT22;8790;53.590;10.002;2023-07-29T06:09:39;18.90;99.90
17346;DHT22;8790;53.590;10.002;2023-07-29T06:12:11;18.90;99.90
17346;DHT22;8790;53.590;10.002;2023-07-29T06:14:44;18.90;99.90
17346;DHT22;8790;53.590;10.002;2023-07-29T06:17:16;18.90;99.90
17346;DHT22;8790;53.590;10.002;2023-07-29T06:19:48;18.90;99.90
17346;DHT22;8790;53.590;10.002;2023-07-29T06:22:19;18.90;99.90
17346;DHT22;8790;53.590;10.002;2023-07-29T06:24:51;18.90;99.90
17346;DHT22;8790;53.590;10.002;2023-07-29T06:27:24;18.90;99.90
17346;DHT22;8790;53.590;10.002;2023-07-29T06:29:57;19.00;99.90
17346;DHT22;8790;53.590;10.002;2023-07-29T06:32:29;18.90;99.90
17346;DHT22;8790;53.590;10.002;2023-07-29T06:35:01;18.90;99.90
17346;DHT22;8790;53.590;10.002;2023-07-29T06:37:33;18.90;99.90
17346;DHT22;8790;53.590;10.002;2023-07-29T06:40:05;19.00;99.90
17346;DHT22;8790;53.590;10.002;2023-07-29T06:42:37;19.00;99.90
17346;DHT22;8790;53.590;10.002;2023-07-29T06:45:10;19.00;99.90
17346;DHT22;8790;53.590;10.002;2023-07-29T06:47:42;19.10;99.90
17346;DHT22;8790;53.590;10.002;2023-07-29T06:50:14;19.00;99.90
17346;DHT22;8790;53.590;10.002;2023-07-29T06:52:45;19.00;99.90
17346;DHT22;8790;53.590;10.002;2023-07-29T06:55:17;19.10;99.90
17346;DHT22;8790;53.590;10.002;2023-07-29T06:57:49;19.10;99.90
17346;DHT22;8790;53.590;10.002;2023-07-29T07:00:22;19.10;99.90
17346;DHT22;8790;53.590;10.002;2023-07-29T07:02:53;19.10;99.90
17346;DHT22;8790;53.590;10.002;2023-07-29T07:05:26;19.10;99.90
17346;DHT22;8790;53.590;10.002;2023-07-29T07:07:58;19.20;99.90
17346;DHT22;8790;53.590;10.002;2023-07-29T07:10:30;19.20;99.90
17346;DHT22;8790;53.590;10.002;2023-07-29T07:13:02;19.20;99.90
17346;DHT22;8790;53.590;10.002;2023-07-29T07:15:35;19.20;99.90
17346;DHT22;8790;53.590;10.002;2023-07-29T07:18:07;19.20;99.90
17346;DHT22;8790;53.590;10.002;2023-07-29T07:20:39;19.10;99.90
17346;DHT22;8790;53.590;10.002;2023-07-29T07:23:11;19.10;99.90
17346;DHT22;8790;53.590;10.002;2023-07-29T07:25:44;19.20;99.90
17346;DHT22;8790;53.590;10.002;2023-07-29T07:28:15;19.20;99.90
17346;DHT22;8790;53.590;10.002;2023-07-29T07:30:48;19.20;99.90
17346;DHT22;8790;53.590;10.002;2023-07-29T07:33:20;19.20;99.90
17346;DHT22;8790;53.590;10.002;2023-07-29T07:35:52;19.20;99.90
17346;DHT22;8790;53.590;10.002;2023-07-29T07:38:24;19.20;99.90
17346;DHT22;8790;53.590;10.002;2023-07-29T07:40:55;19.20;99.90
